createdAt,value
2023-05-11T00:00:18.392Z,5.63
2023-05-11T00:00:49.939Z,5.00
2023-05-11T00:01:21.361Z,5.90
2023-05-11T00:01:52.788Z,6.00
2023-05-11T00:02:24.257Z,4.88
2023-05-11T00:02:55.792Z,5.07
2023-05-11T00:03:27.312Z,5.10
2023-05-11T00:03:58.775Z,5.53
2023-05-11T00:04:30.281Z,5.93
2023-05-11T00:05:01.871Z,5.68
2023-05-11T00:05:33.350Z,5.82
2023-05-11T00:06:04.775Z,5.70
2023-05-11T00:06:36.143Z,5.55
2023-05-11T00:07:07.506Z,6.82
2023-05-11T00:07:38.943Z,5.60
2023-05-11T00:08:10.352Z,6.10
2023-05-11T00:08:41.840Z,7.15
2023-05-11T00:09:13.232Z,6.00
2023-05-11T00:09:44.599Z,6.60
2023-05-11T00:10:16.285Z,7.55
2023-05-11T00:10:48.130Z,6.87
2023-05-11T00:11:19.537Z,6.45
2023-05-11T00:11:52.076Z,6.45
2023-05-11T00:12:23.514Z,6.18
2023-05-11T00:12:55.026Z,6.78
2023-05-11T00:13:26.761Z,7.68
2023-05-11T00:13:58.130Z,8.18
2023-05-11T00:14:29.653Z,6.72
2023-05-11T00:15:00.998Z,6.88
2023-05-11T00:15:32.369Z,6.78
2023-05-11T00:16:03.924Z,6.35
2023-05-11T00:16:35.340Z,7.13
2023-05-11T00:17:07.588Z,7.57
2023-05-11T00:17:39.040Z,7.13
2023-05-11T00:18:10.477Z,7.53
2023-05-11T00:18:42.044Z,7.55
2023-05-11T00:19:13.498Z,7.20
2023-05-11T00:19:44.880Z,7.65
2023-05-11T00:20:16.612Z,6.97
2023-05-11T00:20:48.130Z,7.38
2023-05-11T00:21:19.466Z,9.15
2023-05-11T00:21:50.865Z,8.07
2023-05-11T00:22:22.243Z,8.05
2023-05-11T00:22:53.597Z,9.23
2023-05-11T00:23:24.973Z,8.40
2023-05-11T00:23:56.336Z,9.23
2023-05-11T00:24:27.767Z,8.40
2023-05-11T00:24:59.151Z,9.38
2023-05-11T00:25:30.502Z,9.90
2023-05-11T00:26:01.847Z,10.18
2023-05-11T00:26:33.353Z,13.90
2023-05-11T00:27:04.805Z,11.30
2023-05-11T00:27:36.150Z,9.73
2023-05-11T00:28:07.549Z,10.30
2023-05-11T00:28:38.907Z,9.80
2023-05-11T00:29:10.268Z,11.87
2023-05-11T00:29:41.652Z,11.07
2023-05-11T00:30:13.384Z,10.10
2023-05-11T00:30:44.778Z,10.20
2023-05-11T00:31:16.144Z,10.03
2023-05-11T00:31:47.740Z,9.73
2023-05-11T00:32:19.142Z,10.95
2023-05-11T00:32:50.656Z,9.18
2023-05-11T00:33:22.083Z,9.60
2023-05-11T00:33:53.438Z,10.23
2023-05-11T00:34:24.792Z,9.45
2023-05-11T00:34:56.196Z,9.20
2023-05-11T00:35:27.548Z,10.40
2023-05-11T00:35:58.946Z,10.15
2023-05-11T00:36:30.297Z,10.68
2023-05-11T00:37:01.678Z,9.32
2023-05-11T00:37:33.020Z,9.93
2023-05-11T00:38:04.437Z,9.88
2023-05-11T00:38:35.830Z,10.02
2023-05-11T00:39:07.213Z,10.15
2023-05-11T00:39:38.610Z,10.55
2023-05-11T00:40:10.185Z,9.50
2023-05-11T00:40:41.565Z,8.85
2023-05-11T00:41:12.964Z,9.95
2023-05-11T00:41:44.327Z,9.97
2023-05-11T00:42:15.672Z,10.07
2023-05-11T00:42:47.125Z,9.80
2023-05-11T00:43:18.509Z,9.80
2023-05-11T00:43:49.886Z,9.65
2023-05-11T00:44:21.313Z,9.23
2023-05-11T00:44:52.718Z,9.55
2023-05-11T00:45:24.203Z,8.93
2023-05-11T00:45:55.649Z,9.48
2023-05-11T00:46:27.295Z,10.07
2023-05-11T00:46:58.744Z,10.73
2023-05-11T00:47:30.223Z,9.02
2023-05-11T00:48:01.741Z,9.38
2023-05-11T00:48:33.497Z,9.53
2023-05-11T00:49:05.010Z,10.85
2023-05-11T00:49:36.341Z,9.30
2023-05-11T00:50:08.102Z,10.32
2023-05-11T00:50:39.487Z,11.05
2023-05-11T00:51:11.731Z,10.82
2023-05-11T00:51:43.576Z,11.20
2023-05-11T00:52:14.908Z,11.00
2023-05-11T00:52:46.611Z,10.98
2023-05-11T00:53:17.984Z,11.13
2023-05-11T00:53:49.666Z,10.23
2023-05-11T00:54:21.089Z,11.50
2023-05-11T00:54:52.546Z,11.40
2023-05-11T00:55:24.309Z,10.27
2023-05-11T00:55:55.687Z,10.85
2023-05-11T00:56:27.038Z,10.32
2023-05-11T00:56:58.418Z,9.57
2023-05-11T00:57:29.768Z,10.30
2023-05-11T00:58:02.254Z,8.15
2023-05-11T00:58:33.608Z,9.25
2023-05-11T00:59:05.048Z,10.15
2023-05-11T00:59:36.429Z,10.00
2023-05-11T01:00:08.098Z,9.43
2023-05-11T01:00:39.584Z,10.05
2023-05-11T01:01:11.039Z,10.63
2023-05-11T01:01:43.057Z,9.63
2023-05-11T01:02:14.528Z,9.20
2023-05-11T01:02:46.032Z,9.98
2023-05-11T01:03:17.618Z,9.65
2023-05-11T01:03:49.083Z,10.90
2023-05-11T01:04:20.519Z,10.60
2023-05-11T01:04:51.914Z,10.23
2023-05-11T01:05:25.747Z,10.20
2023-05-11T01:06:17.303Z,10.20
2023-05-11T01:06:51.812Z,9.52
2023-05-11T01:07:25.960Z,10.77
2023-05-11T01:08:05.026Z,10.05
2023-05-11T01:08:42.102Z,9.48
2023-05-11T01:09:24.430Z,11.23
2023-05-11T01:10:00.204Z,9.60
2023-05-11T01:10:33.696Z,9.13
2023-05-11T01:11:09.576Z,9.00
2023-05-11T01:11:46.672Z,9.95
2023-05-11T01:12:34.460Z,9.68
2023-05-11T01:13:14.629Z,8.75
2023-05-11T01:13:48.435Z,10.32
2023-05-11T01:14:22.915Z,9.68
2023-05-11T01:14:57.866Z,8.55
2023-05-11T01:15:46.138Z,9.32
2023-05-11T01:16:21.823Z,10.38
2023-05-11T01:16:56.134Z,9.73
2023-05-11T01:17:40.435Z,8.75
2023-05-11T01:18:24.170Z,8.18
2023-05-11T01:19:04.234Z,8.98
2023-05-11T01:19:38.829Z,9.70
2023-05-11T01:20:12.749Z,8.90
2023-05-11T01:20:45.624Z,8.67
2023-05-11T01:21:17.744Z,9.45
2023-05-11T01:21:50.061Z,9.18
2023-05-11T01:22:27.614Z,10.48
2023-05-11T01:23:07.912Z,9.48
2023-05-11T01:23:53.782Z,10.40
2023-05-11T01:24:43.670Z,11.05
2023-05-11T01:25:15.039Z,10.80
2023-05-11T01:26:05.100Z,11.20
2023-05-11T01:26:48.708Z,11.80
2023-05-11T01:27:40.021Z,10.65
2023-05-11T01:28:11.368Z,11.85
2023-05-11T01:29:01.368Z,11.55
2023-05-11T01:29:35.522Z,10.85
2023-05-11T01:30:24.573Z,11.37
2023-05-11T01:31:04.116Z,10.95
2023-05-11T01:31:38.897Z,10.75
2023-05-11T01:32:14.584Z,10.80
2023-05-11T01:32:46.181Z,11.30
2023-05-11T01:33:19.649Z,10.88
2023-05-11T01:34:11.335Z,11.20
2023-05-11T01:34:43.236Z,10.88
2023-05-11T01:35:18.462Z,11.75
2023-05-11T01:35:52.928Z,10.43
2023-05-11T01:36:29.804Z,12.27
2023-05-11T01:37:09.330Z,11.05
2023-05-11T01:37:41.990Z,10.63
2023-05-11T01:38:14.199Z,10.68
2023-05-11T01:38:47.500Z,11.63
2023-05-11T01:39:21.399Z,11.52
2023-05-11T01:39:54.016Z,10.55
2023-05-11T01:40:28.534Z,11.75
2023-05-11T01:41:00.994Z,10.77
2023-05-11T01:41:33.723Z,9.68
2023-05-11T01:42:07.563Z,11.27
2023-05-11T01:42:41.901Z,11.98
2023-05-11T01:43:16.988Z,10.20
2023-05-11T01:43:52.808Z,9.77
2023-05-11T01:44:25.167Z,9.30
2023-05-11T01:44:57.603Z,9.20
2023-05-11T01:45:31.471Z,10.13
2023-05-11T01:46:03.746Z,10.02
2023-05-11T01:46:35.527Z,9.43
2023-05-11T01:47:08.016Z,9.60
2023-05-11T01:47:40.484Z,10.07
2023-05-11T01:48:13.898Z,10.20
2023-05-11T01:48:49.021Z,9.40
2023-05-11T01:49:21.751Z,8.75
2023-05-11T01:49:54.170Z,9.82
2023-05-11T01:50:25.766Z,9.43
2023-05-11T01:50:59.247Z,9.05
2023-05-11T01:51:32.837Z,9.38
2023-05-11T01:52:05.634Z,10.13
2023-05-11T01:52:37.852Z,10.60
2023-05-11T01:53:10.847Z,9.65
2023-05-11T01:53:42.645Z,9.93
2023-05-11T01:54:14.170Z,9.57
2023-05-11T01:54:46.646Z,9.90
2023-05-11T01:55:19.556Z,9.00
2023-05-11T01:55:51.172Z,9.63
2023-05-11T01:56:23.041Z,8.60
2023-05-11T01:56:55.343Z,10.00
2023-05-11T01:57:27.770Z,9.43
2023-05-11T01:57:59.971Z,9.30
2023-05-11T01:58:32.638Z,8.90
2023-05-11T01:59:04.609Z,9.43
2023-05-11T01:59:37.062Z,10.00
2023-05-11T02:00:08.769Z,10.18
2023-05-11T02:00:40.318Z,8.88
2023-05-11T02:01:12.009Z,8.37
2023-05-11T02:01:43.463Z,10.20
2023-05-11T02:02:15.013Z,11.80
2023-05-11T02:02:47.573Z,9.05
2023-05-11T02:03:20.705Z,8.68
2023-05-11T02:03:53.137Z,9.40
2023-05-11T02:04:25.106Z,9.45
2023-05-11T02:04:57.903Z,8.55
2023-05-11T02:05:30.119Z,8.48
2023-05-11T02:06:02.834Z,8.75
2023-05-11T02:06:34.420Z,9.45
2023-05-11T02:07:07.025Z,9.52
2023-05-11T02:07:42.824Z,8.52
2023-05-11T02:08:14.969Z,8.75
2023-05-11T02:08:47.268Z,9.45
2023-05-11T02:09:18.963Z,8.43
2023-05-11T02:09:50.722Z,8.50
2023-05-11T02:10:25.150Z,9.18
2023-05-11T02:10:56.926Z,9.25
2023-05-11T02:11:29.030Z,9.05
2023-05-11T02:12:00.662Z,8.82
2023-05-11T02:12:32.147Z,8.48
2023-05-11T02:13:04.706Z,10.47
2023-05-11T02:13:37.790Z,8.02
2023-05-11T02:14:10.272Z,9.13
2023-05-11T02:14:41.728Z,9.75
2023-05-11T02:15:13.565Z,8.80
2023-05-11T02:15:45.286Z,9.10
2023-05-11T02:16:18.306Z,8.68
2023-05-11T02:16:50.214Z,9.18
2023-05-11T02:17:22.587Z,9.13
2023-05-11T02:17:54.428Z,7.97
2023-05-11T02:18:26.578Z,8.20
2023-05-11T02:18:58.684Z,9.10
2023-05-11T02:19:30.626Z,8.53
2023-05-11T02:20:02.904Z,8.15
2023-05-11T02:20:34.883Z,8.55
2023-05-11T02:21:07.964Z,8.73
2023-05-11T02:21:40.963Z,8.75
2023-05-11T02:22:12.701Z,9.10
2023-05-11T02:22:45.017Z,8.48
2023-05-11T02:23:17.058Z,8.27
2023-05-11T02:23:49.981Z,8.88
2023-05-11T02:24:23.432Z,9.07
2023-05-11T02:24:54.917Z,8.32
2023-05-11T02:25:26.696Z,8.00
2023-05-11T02:25:58.242Z,8.15
2023-05-11T02:26:29.595Z,8.07
2023-05-11T02:27:00.985Z,8.73
2023-05-11T02:27:32.348Z,8.57
2023-05-11T02:28:03.809Z,8.10
2023-05-11T02:28:35.232Z,9.07
2023-05-11T02:29:06.735Z,8.75
2023-05-11T02:29:38.173Z,8.40
2023-05-11T02:30:09.974Z,7.55
2023-05-11T02:30:44.678Z,8.45
2023-05-11T02:31:28.940Z,8.07
2023-05-11T02:32:12.248Z,8.73
2023-05-11T02:32:49.910Z,8.35
2023-05-11T02:33:25.051Z,7.95
2023-05-11T02:34:13.706Z,8.15
2023-05-11T02:34:49.834Z,8.45
2023-05-11T02:35:25.466Z,9.88
2023-05-11T02:35:57.801Z,8.40
2023-05-11T02:36:29.738Z,8.38
2023-05-11T02:37:02.134Z,7.65
2023-05-11T02:37:34.124Z,7.30
2023-05-11T02:38:05.717Z,8.43
2023-05-11T02:38:38.622Z,8.68
2023-05-11T02:39:12.530Z,8.13
2023-05-11T02:39:44.809Z,8.25
2023-05-11T02:40:20.746Z,8.18
2023-05-11T02:40:55.234Z,8.18
2023-05-11T02:41:28.599Z,8.25
2023-05-11T02:42:01.730Z,8.30
2023-05-11T02:42:36.871Z,7.95
2023-05-11T02:43:10.326Z,8.35
2023-05-11T02:43:44.818Z,8.40
2023-05-11T02:44:17.550Z,8.75
2023-05-11T02:45:02.143Z,8.15
2023-05-11T02:45:34.157Z,7.80
2023-05-11T02:46:07.082Z,8.52
2023-05-11T02:46:39.307Z,7.95
2023-05-11T02:47:12.781Z,6.80
2023-05-11T02:47:54.683Z,8.18
2023-05-11T02:48:31.023Z,8.27
2023-05-11T02:49:03.759Z,7.30
2023-05-11T02:49:36.095Z,7.53
2023-05-11T02:50:08.402Z,7.13
2023-05-11T02:50:40.719Z,8.70
2023-05-11T02:51:12.779Z,6.93
2023-05-11T02:51:45.183Z,6.93
2023-05-11T02:52:17.479Z,7.53
2023-05-11T02:52:49.377Z,7.38
2023-05-11T02:53:21.424Z,6.93
2023-05-11T02:53:54.800Z,7.57
2023-05-11T02:54:27.105Z,7.63
2023-05-11T02:54:59.871Z,8.52
2023-05-11T02:55:31.876Z,6.82
2023-05-11T02:56:03.356Z,7.55
2023-05-11T02:56:35.179Z,6.68
2023-05-11T02:57:06.641Z,6.65
2023-05-11T02:57:38.669Z,7.28
2023-05-11T02:58:10.284Z,7.15
2023-05-11T02:58:41.899Z,6.80
2023-05-11T02:59:13.889Z,6.88
2023-05-11T02:59:45.710Z,6.85
2023-05-11T03:00:17.542Z,6.97
2023-05-11T03:00:49.376Z,7.35
2023-05-11T03:01:20.975Z,7.20
2023-05-11T03:01:52.750Z,6.78
2023-05-11T03:02:24.427Z,6.97
2023-05-11T03:02:55.957Z,7.22
2023-05-11T03:03:27.586Z,6.75
2023-05-11T03:03:59.078Z,5.87
2023-05-11T03:04:30.691Z,6.82
2023-05-11T03:05:02.024Z,7.55
2023-05-11T03:05:33.367Z,6.60
2023-05-11T03:06:04.877Z,5.65
2023-05-11T03:06:36.769Z,6.80
2023-05-11T03:07:08.512Z,6.90
2023-05-11T03:07:39.918Z,6.95
2023-05-11T03:08:11.343Z,6.95
2023-05-11T03:08:42.847Z,5.60
2023-05-11T03:09:14.357Z,6.77
2023-05-11T03:09:45.763Z,6.65
2023-05-11T03:10:17.502Z,6.32
2023-05-11T03:10:49.103Z,6.30
2023-05-11T03:11:20.889Z,6.82
2023-05-11T03:11:52.273Z,6.60
2023-05-11T03:12:23.647Z,5.70
2023-05-11T03:12:55.528Z,7.13
2023-05-11T03:13:27.404Z,5.70
2023-05-11T03:13:59.374Z,5.65
2023-05-11T03:14:34.601Z,5.88
2023-05-11T03:15:06.792Z,5.90
2023-05-11T03:15:38.777Z,6.40
2023-05-11T03:16:12.092Z,5.78
2023-05-11T03:16:44.041Z,5.65
2023-05-11T03:17:16.092Z,6.05
2023-05-11T03:17:48.518Z,7.28
2023-05-11T03:18:21.020Z,5.60
2023-05-11T03:18:52.881Z,6.10
2023-05-11T03:19:24.670Z,5.65
2023-05-11T03:19:56.721Z,7.43
2023-05-11T03:20:28.952Z,5.32
2023-05-11T03:21:00.666Z,5.97
2023-05-11T03:21:32.932Z,6.55
2023-05-11T03:22:04.378Z,6.57
2023-05-11T03:22:36.376Z,6.28
2023-05-11T03:23:08.379Z,6.55
2023-05-11T03:23:41.066Z,5.90
2023-05-11T03:24:12.768Z,6.15
2023-05-11T03:24:44.259Z,5.57
2023-05-11T03:25:15.870Z,6.20
2023-05-11T03:25:47.586Z,5.63
2023-05-11T03:26:20.883Z,5.88
2023-05-11T03:26:53.914Z,6.03
2023-05-11T03:27:26.064Z,6.13
2023-05-11T03:27:58.403Z,5.53
2023-05-11T03:28:30.342Z,6.43
2023-05-11T03:29:02.352Z,5.72
2023-05-11T03:29:34.160Z,5.18
2023-05-11T03:30:07.543Z,6.05
2023-05-11T03:30:39.490Z,5.63
2023-05-11T03:31:10.929Z,6.07
2023-05-11T03:31:42.635Z,6.22
2023-05-11T03:32:14.122Z,5.22
2023-05-11T03:32:45.595Z,6.68
2023-05-11T03:33:17.058Z,5.55
2023-05-11T03:33:48.589Z,5.90
2023-05-11T03:34:19.977Z,6.32
2023-05-11T03:34:51.356Z,7.32
2023-05-11T03:35:25.442Z,5.82
2023-05-11T03:35:56.968Z,7.30
2023-05-11T03:36:28.818Z,6.77
2023-05-11T03:37:00.454Z,6.93
2023-05-11T03:37:32.556Z,5.95
2023-05-11T03:38:05.221Z,6.95
2023-05-11T03:38:37.250Z,7.28
2023-05-11T03:39:08.958Z,6.57
2023-05-11T03:39:41.433Z,5.93
2023-05-11T03:40:14.721Z,6.05
2023-05-11T03:40:46.498Z,5.80
2023-05-11T03:41:18.183Z,6.30
2023-05-11T03:41:50.120Z,5.75
2023-05-11T03:42:22.043Z,7.13
2023-05-11T03:42:54.356Z,6.13
2023-05-11T03:43:26.958Z,5.53
2023-05-11T03:43:59.930Z,6.20
2023-05-11T03:44:32.887Z,5.75
2023-05-11T03:45:06.600Z,6.60
2023-05-11T03:45:38.861Z,5.68
2023-05-11T03:46:11.853Z,5.33
2023-05-11T03:46:44.354Z,6.40
2023-05-11T03:47:16.263Z,6.20
2023-05-11T03:47:48.708Z,6.72
2023-05-11T03:48:20.513Z,5.47
2023-05-11T03:48:52.062Z,5.00
2023-05-11T03:49:24.254Z,4.75
2023-05-11T03:49:56.124Z,5.03
2023-05-11T03:50:28.107Z,5.40
2023-05-11T03:50:59.725Z,6.20
2023-05-11T03:51:31.483Z,5.47
2023-05-11T03:52:03.026Z,6.53
2023-05-11T03:52:35.032Z,6.55
2023-05-11T03:53:06.412Z,4.72
2023-05-11T03:53:38.412Z,5.88
2023-05-11T03:54:10.093Z,4.53
2023-05-11T03:54:42.727Z,5.18
2023-05-11T03:55:14.218Z,6.03
2023-05-11T03:55:45.660Z,5.40
2023-05-11T03:56:17.034Z,5.43
2023-05-11T03:56:48.483Z,6.13
2023-05-11T03:57:19.878Z,6.78
2023-05-11T03:57:51.713Z,6.20
2023-05-11T03:58:23.449Z,5.97
2023-05-11T03:58:54.811Z,4.45
2023-05-11T03:59:26.159Z,4.63
2023-05-11T03:59:57.543Z,5.53
2023-05-11T04:00:29.313Z,5.53
2023-05-11T04:01:00.757Z,5.38
2023-05-11T04:01:32.528Z,4.85
2023-05-11T04:02:03.944Z,5.07
2023-05-11T04:02:35.361Z,4.60
2023-05-11T04:03:07.879Z,5.55
2023-05-11T04:03:52.124Z,5.72
2023-05-11T04:04:30.299Z,5.18
2023-05-11T04:05:07.360Z,5.53
2023-05-11T04:05:38.735Z,5.00
2023-05-11T04:06:10.067Z,5.75
2023-05-11T04:06:41.466Z,4.38
2023-05-11T04:07:12.886Z,5.03
2023-05-11T04:07:44.227Z,4.60
2023-05-11T04:08:15.761Z,4.18
2023-05-11T04:08:47.261Z,3.95
2023-05-11T04:09:18.645Z,4.32
2023-05-11T04:09:50.053Z,5.40
2023-05-11T04:10:21.551Z,4.70
2023-05-11T04:10:52.957Z,4.78
2023-05-11T04:11:24.359Z,4.22
2023-05-11T04:11:55.701Z,3.92
2023-05-11T04:12:27.094Z,4.45
2023-05-11T04:12:58.510Z,4.45
2023-05-11T04:13:29.861Z,5.63
2023-05-11T04:14:01.212Z,4.07
2023-05-11T04:14:32.583Z,3.97
2023-05-11T04:15:04.169Z,3.83
2023-05-11T04:15:35.552Z,3.85
2023-05-11T04:16:07.374Z,4.90
2023-05-11T04:16:38.926Z,4.07
2023-05-11T04:17:10.463Z,4.18
2023-05-11T04:17:41.837Z,4.20
2023-05-11T04:18:13.235Z,3.65
2023-05-11T04:18:44.616Z,3.78
2023-05-11T04:19:16.003Z,3.47
2023-05-11T04:19:47.399Z,3.15
2023-05-11T04:20:19.192Z,4.00
2023-05-11T04:20:50.777Z,4.03
2023-05-11T04:21:22.325Z,4.65
2023-05-11T04:21:53.766Z,4.50
2023-05-11T04:22:25.151Z,4.38
2023-05-11T04:22:56.511Z,5.03
2023-05-11T04:23:27.885Z,4.00
2023-05-11T04:23:59.231Z,3.65
2023-05-11T04:24:30.642Z,4.38
2023-05-11T04:25:02.083Z,8.65
2023-05-11T04:25:33.458Z,6.75
2023-05-11T04:26:04.867Z,6.22
2023-05-11T04:26:36.255Z,5.27
2023-05-11T04:27:07.613Z,4.18
2023-05-11T04:27:39.121Z,5.20
2023-05-11T04:28:10.470Z,3.53
2023-05-11T04:28:41.814Z,3.95
2023-05-11T04:29:13.154Z,3.72
2023-05-11T04:29:44.484Z,6.10
2023-05-11T04:30:15.981Z,4.13
2023-05-11T04:30:52.180Z,4.25
2023-05-11T04:31:23.650Z,3.83
2023-05-11T04:31:55.119Z,3.10
2023-05-11T04:32:26.576Z,3.40
2023-05-11T04:32:58.046Z,3.63
2023-05-11T04:33:29.417Z,4.07
2023-05-11T04:34:00.774Z,3.50
2023-05-11T04:34:32.147Z,3.28
2023-05-11T04:35:03.728Z,3.75
2023-05-11T04:35:38.980Z,3.53
2023-05-11T04:36:10.341Z,3.42
2023-05-11T04:36:41.759Z,3.22
2023-05-11T04:37:13.091Z,3.50
2023-05-11T04:37:44.427Z,3.88
2023-05-11T04:38:15.791Z,3.45
2023-05-11T04:38:47.141Z,4.68
2023-05-11T04:39:18.592Z,3.45
2023-05-11T04:39:49.994Z,3.13
2023-05-11T04:40:21.428Z,3.47
2023-05-11T04:40:52.852Z,4.07
2023-05-11T04:41:24.223Z,4.57
2023-05-11T04:41:55.608Z,3.53
2023-05-11T04:42:26.946Z,3.25
2023-05-11T04:42:58.298Z,3.40
2023-05-11T04:43:29.660Z,3.05
2023-05-11T04:44:01.027Z,3.58
2023-05-11T04:44:32.486Z,2.88
2023-05-11T04:45:04.020Z,3.20
2023-05-11T04:45:35.429Z,3.60
2023-05-11T04:46:06.796Z,3.58
2023-05-11T04:46:38.612Z,3.28
2023-05-11T04:47:10.080Z,3.60
2023-05-11T04:47:41.456Z,3.40
2023-05-11T04:48:12.867Z,3.15
2023-05-11T04:48:44.244Z,3.22
2023-05-11T04:49:15.650Z,3.72
2023-05-11T04:49:47.212Z,3.65
2023-05-11T04:50:18.821Z,3.63
2023-05-11T04:50:50.333Z,3.72
2023-05-11T04:51:21.691Z,3.55
2023-05-11T04:51:53.090Z,3.50
2023-05-11T04:52:24.504Z,3.80
2023-05-11T04:52:55.834Z,3.13
2023-05-11T04:53:27.195Z,3.95
2023-05-11T04:53:58.755Z,3.72
2023-05-11T04:54:30.150Z,3.15
2023-05-11T04:55:01.544Z,3.80
2023-05-11T04:55:33.045Z,4.10
2023-05-11T04:56:04.548Z,3.03
2023-05-11T04:56:35.909Z,3.53
2023-05-11T04:57:07.244Z,4.28
2023-05-11T04:57:38.723Z,3.38
2023-05-11T04:58:10.156Z,5.57
2023-05-11T04:58:41.505Z,4.28
2023-05-11T04:59:12.838Z,3.70
2023-05-11T04:59:44.234Z,3.92
2023-05-11T05:00:15.933Z,3.60
2023-05-11T05:00:47.561Z,3.47
2023-05-11T05:01:19.004Z,4.13
2023-05-11T05:01:50.459Z,3.97
2023-05-11T05:02:21.814Z,3.53
2023-05-11T05:02:53.280Z,3.95
2023-05-11T05:03:24.812Z,4.33
2023-05-11T05:03:56.245Z,4.90
2023-05-11T05:04:27.605Z,5.22
2023-05-11T05:04:58.948Z,3.92
2023-05-11T05:05:30.430Z,2.88
2023-05-11T05:06:01.784Z,4.60
2023-05-11T05:06:33.156Z,3.35
2023-05-11T05:07:04.585Z,3.88
2023-05-11T05:07:35.982Z,3.85
2023-05-11T05:08:07.409Z,3.45
2023-05-11T05:08:38.808Z,2.93
2023-05-11T05:09:10.137Z,3.60
2023-05-11T05:09:43.092Z,2.97
2023-05-11T05:10:16.725Z,4.07
2023-05-11T05:10:48.253Z,4.30
2023-05-11T05:11:19.603Z,2.97
2023-05-11T05:11:50.964Z,3.20
2023-05-11T05:12:22.295Z,4.83
2023-05-11T05:12:53.648Z,3.55
2023-05-11T05:13:25.062Z,3.30
2023-05-11T05:13:56.438Z,4.00
2023-05-11T05:14:27.816Z,4.32
2023-05-11T05:14:59.219Z,3.10
2023-05-11T05:15:30.591Z,3.60
2023-05-11T05:16:02.017Z,5.10
2023-05-11T05:16:33.373Z,3.92
2023-05-11T05:17:04.892Z,4.63
2023-05-11T05:17:36.349Z,3.75
2023-05-11T05:18:07.806Z,3.55
2023-05-11T05:18:39.360Z,4.80
2023-05-11T05:19:10.747Z,4.13
2023-05-11T05:19:42.073Z,3.95
2023-05-11T05:20:13.506Z,3.63
2023-05-11T05:20:44.859Z,4.28
2023-05-11T05:21:16.202Z,3.97
2023-05-11T05:21:47.689Z,3.88
2023-05-11T05:22:19.067Z,3.67
2023-05-11T05:22:50.454Z,4.53
2023-05-11T05:23:21.856Z,4.45
2023-05-11T05:23:53.592Z,4.65
2023-05-11T05:24:25.018Z,3.80
2023-05-11T05:24:56.405Z,4.50
2023-05-11T05:25:27.811Z,5.63
2023-05-11T05:25:59.157Z,4.72
2023-05-11T05:26:30.533Z,4.88
2023-05-11T05:27:02.046Z,4.45
2023-05-11T05:27:34.899Z,4.93
2023-05-11T05:28:06.635Z,3.70
2023-05-11T05:28:38.048Z,3.80
2023-05-11T05:29:09.427Z,4.53
2023-05-11T05:29:40.792Z,3.78
2023-05-11T05:30:12.291Z,5.07
2023-05-11T05:30:43.682Z,4.90
2023-05-11T05:31:15.164Z,4.70
2023-05-11T05:31:46.581Z,4.78
2023-05-11T05:32:17.940Z,3.67
2023-05-11T05:32:49.336Z,3.78
2023-05-11T05:33:20.734Z,3.28
2023-05-11T05:33:52.106Z,2.72
2023-05-11T05:34:23.479Z,4.07
2023-05-11T05:34:54.823Z,3.03
2023-05-11T05:35:26.179Z,3.38
2023-05-11T05:35:57.538Z,3.80
2023-05-11T05:36:28.890Z,4.28
2023-05-11T05:37:00.262Z,3.75
2023-05-11T05:37:31.640Z,4.28
2023-05-11T05:38:03.014Z,3.17
2023-05-11T05:38:34.337Z,3.60
2023-05-11T05:39:05.688Z,3.00
2023-05-11T05:39:37.065Z,3.28
2023-05-11T05:40:08.682Z,3.70
2023-05-11T05:40:40.038Z,3.78
2023-05-11T05:41:11.444Z,4.15
2023-05-11T05:41:43.414Z,3.42
2023-05-11T05:42:14.786Z,3.85
2023-05-11T05:42:46.174Z,2.88
2023-05-11T05:43:17.564Z,3.60
2023-05-11T05:43:49.000Z,5.03
2023-05-11T05:44:20.359Z,3.92
2023-05-11T05:44:51.789Z,3.10
2023-05-11T05:45:23.184Z,3.83
2023-05-11T05:45:54.549Z,6.05
2023-05-11T05:46:25.973Z,3.40
2023-05-11T05:46:57.350Z,3.85
2023-05-11T05:47:28.723Z,4.18
2023-05-11T05:48:00.256Z,3.63
2023-05-11T05:48:31.814Z,3.50
2023-05-11T05:49:03.229Z,3.50
2023-05-11T05:49:34.573Z,3.42
2023-05-11T05:50:07.045Z,3.72
2023-05-11T05:50:38.403Z,2.97
2023-05-11T05:51:09.853Z,3.67
2023-05-11T05:51:41.217Z,3.47
2023-05-11T05:52:12.658Z,3.35
2023-05-11T05:52:44.022Z,3.50
2023-05-11T05:53:15.425Z,3.80
2023-05-11T05:53:46.807Z,3.60
2023-05-11T05:54:18.230Z,6.65
2023-05-11T05:54:49.573Z,7.38
2023-05-11T05:55:20.996Z,5.55
2023-05-11T05:55:52.378Z,4.75
2023-05-11T05:56:23.783Z,3.85
2023-05-11T05:56:55.147Z,4.10
2023-05-11T05:57:26.544Z,4.32
2023-05-11T05:57:57.879Z,4.38
2023-05-11T05:58:29.280Z,3.92
2023-05-11T05:59:00.999Z,3.40
2023-05-11T05:59:32.432Z,4.15
2023-05-11T06:00:03.986Z,3.42
2023-05-11T06:00:35.597Z,3.43
2023-05-11T06:01:06.962Z,3.92
2023-05-11T06:01:38.427Z,3.80
2023-05-11T06:02:09.873Z,3.65
2023-05-11T06:02:41.437Z,3.38
2023-05-11T06:03:13.080Z,3.60
2023-05-11T06:03:44.854Z,4.30
2023-05-11T06:04:16.720Z,3.65
2023-05-11T06:04:48.169Z,4.13
2023-05-11T06:05:19.575Z,4.13
2023-05-11T06:05:50.991Z,4.32
2023-05-11T06:06:22.427Z,3.92
2023-05-11T06:06:53.787Z,3.65
2023-05-11T06:07:25.187Z,3.30
2023-05-11T06:08:09.275Z,3.28
2023-05-11T06:08:42.233Z,4.00
2023-05-11T06:09:13.600Z,4.40
2023-05-11T06:09:45.034Z,3.55
2023-05-11T06:10:16.624Z,4.40
2023-05-11T06:10:48.132Z,4.20
2023-05-11T06:11:19.521Z,4.15
2023-05-11T06:11:50.871Z,4.72
2023-05-11T06:12:22.221Z,3.25
2023-05-11T06:12:53.648Z,3.30
2023-05-11T06:13:25.002Z,4.82
2023-05-11T06:13:56.382Z,5.30
2023-05-11T06:14:27.744Z,4.03
2023-05-11T06:14:59.108Z,4.28
2023-05-11T06:15:30.501Z,4.05
2023-05-11T06:16:01.956Z,4.28
2023-05-11T06:16:33.341Z,4.30
2023-05-11T06:17:04.710Z,3.83
2023-05-11T06:17:36.122Z,4.40
2023-05-11T06:18:07.507Z,4.95
2023-05-11T06:18:38.895Z,4.93
2023-05-11T06:19:10.380Z,5.78
2023-05-11T06:19:41.738Z,5.07
2023-05-11T06:20:13.162Z,4.37
2023-05-11T06:20:44.554Z,4.65
2023-05-11T06:21:15.891Z,4.82
2023-05-11T06:21:47.239Z,4.05
2023-05-11T06:22:18.571Z,4.25
2023-05-11T06:22:49.925Z,4.03
2023-05-11T06:23:21.346Z,3.60
2023-05-11T06:23:52.744Z,3.40
2023-05-11T06:24:24.124Z,4.50
2023-05-11T06:24:55.484Z,4.07
2023-05-11T06:25:26.876Z,2.95
2023-05-11T06:25:58.256Z,4.18
2023-05-11T06:26:29.922Z,4.80
2023-05-11T06:27:01.296Z,3.92
2023-05-11T06:27:32.663Z,3.47
2023-05-11T06:28:04.091Z,4.45
2023-05-11T06:28:35.447Z,4.40
2023-05-11T06:29:07.037Z,3.40
2023-05-11T06:29:38.488Z,3.40
2023-05-11T06:30:10.078Z,4.15
2023-05-11T06:30:41.470Z,4.65
2023-05-11T06:31:12.917Z,3.85
2023-05-11T06:31:44.352Z,4.00
2023-05-11T06:32:15.735Z,4.38
2023-05-11T06:32:47.150Z,4.05
2023-05-11T06:33:18.670Z,3.05
2023-05-11T06:33:50.194Z,4.68
2023-05-11T06:34:22.179Z,5.15
2023-05-11T06:34:53.546Z,5.35
2023-05-11T06:35:24.977Z,4.00
2023-05-11T06:35:56.318Z,4.03
2023-05-11T06:36:27.752Z,3.95
2023-05-11T06:36:59.526Z,3.88
2023-05-11T06:37:31.129Z,4.33
2023-05-11T06:38:02.533Z,3.47
2023-05-11T06:38:33.949Z,3.83
2023-05-11T06:39:05.349Z,3.80
2023-05-11T06:39:36.707Z,3.30
2023-05-11T06:40:08.465Z,3.85
2023-05-11T06:40:39.842Z,4.05
2023-05-11T06:41:11.374Z,4.43
2023-05-11T06:41:42.812Z,3.67
2023-05-11T06:42:14.175Z,4.15
2023-05-11T06:42:45.538Z,4.10
2023-05-11T06:43:16.893Z,4.00
2023-05-11T06:43:48.253Z,3.95
2023-05-11T06:44:19.694Z,3.65
2023-05-11T06:44:51.144Z,3.95
2023-05-11T06:45:22.709Z,3.08
2023-05-11T06:45:54.242Z,3.65
2023-05-11T06:46:25.693Z,3.30
2023-05-11T06:46:57.061Z,3.45
2023-05-11T06:47:28.479Z,3.90
2023-05-11T06:47:59.919Z,3.72
2023-05-11T06:48:31.318Z,3.55
2023-05-11T06:49:02.703Z,3.88
2023-05-11T06:49:34.154Z,4.10
2023-05-11T06:50:05.881Z,3.95
2023-05-11T06:50:37.272Z,3.90
2023-05-11T06:51:11.812Z,3.95
2023-05-11T06:51:43.271Z,4.00
2023-05-11T06:52:14.670Z,3.78
2023-05-11T06:52:46.061Z,3.35
2023-05-11T06:53:17.479Z,4.13
2023-05-11T06:53:48.849Z,3.65
2023-05-11T06:54:20.234Z,3.50
2023-05-11T06:54:51.660Z,3.25
2023-05-11T06:55:23.029Z,3.80
2023-05-11T06:55:54.650Z,3.30
2023-05-11T06:56:26.047Z,3.55
2023-05-11T06:56:57.686Z,3.55
2023-05-11T06:57:29.047Z,4.32
2023-05-11T06:58:00.424Z,3.47
2023-05-11T06:58:31.927Z,2.90
2023-05-11T06:59:03.291Z,3.55
2023-05-11T06:59:34.736Z,3.80
2023-05-11T07:00:06.353Z,3.40
2023-05-11T07:00:37.746Z,3.30
2023-05-11T07:01:09.187Z,3.17
2023-05-11T07:01:40.631Z,3.13
2023-05-11T07:02:11.992Z,3.00
2023-05-11T07:02:43.495Z,2.95
2023-05-11T07:03:15.136Z,3.40
2023-05-11T07:03:46.424Z,3.45
2023-05-11T07:04:17.910Z,3.15
2023-05-11T07:04:49.297Z,3.00
2023-05-11T07:05:20.782Z,2.92
2023-05-11T07:05:52.242Z,2.45
2023-05-11T07:06:23.626Z,2.72
2023-05-11T07:06:55.355Z,3.03
2023-05-11T07:07:26.732Z,2.33
2023-05-11T07:07:58.106Z,3.42
2023-05-11T07:08:29.527Z,3.72
2023-05-11T07:09:02.153Z,3.03